地図

経路データ

SID SEASON NUMBER BASIN SUBBASIN NAME ISO_TIME NATURE LAT LON WMO_WIND WMO_PRES WMO_AGENCY TRACK_TYPE DIST2LAND LANDFALL IFLAG USA_AGENCY USA_ATCF_ID USA_LAT USA_LON USA_RECORD USA_STATUS USA_WIND USA_PRES USA_SSHS USA_R34_NE USA_R34_SE USA_R34_SW USA_R34_NW USA_R50_NE USA_R50_SE USA_R50_SW USA_R50_NW USA_R64_NE USA_R64_SE USA_R64_SW USA_R64_NW USA_POCI USA_ROCI USA_RMW USA_EYE TOKYO_LAT TOKYO_LON TOKYO_GRADE TOKYO_WIND TOKYO_PRES TOKYO_R50_DIR TOKYO_R50_LONG TOKYO_R50_SHORT TOKYO_R30_DIR TOKYO_R30_LONG TOKYO_R30_SHORT TOKYO_LAND CMA_LAT CMA_LON CMA_CAT CMA_WIND CMA_PRES HKO_LAT HKO_LON HKO_CAT HKO_WIND HKO_PRES NEWDELHI_LAT NEWDELHI_LON NEWDELHI_GRADE NEWDELHI_WIND NEWDELHI_PRES NEWDELHI_CI NEWDELHI_DP NEWDELHI_POCI REUNION_LAT REUNION_LON REUNION_TYPE REUNION_WIND REUNION_PRES REUNION_TNUM REUNION_CI REUNION_RMW REUNION_R34_NE REUNION_R34_SE REUNION_R34_SW REUNION_R34_NW REUNION_R50_NE REUNION_R50_SE REUNION_R50_SW REUNION_R50_NW REUNION_R64_NE REUNION_R64_SE REUNION_R64_SW REUNION_R64_NW BOM_LAT BOM_LON BOM_TYPE BOM_WIND BOM_PRES BOM_TNUM BOM_CI BOM_RMW BOM_R34_NE BOM_R34_SE BOM_R34_SW BOM_R34_NW BOM_R50_NE BOM_R50_SE BOM_R50_SW BOM_R50_NW BOM_R64_NE BOM_R64_SE BOM_R64_SW BOM_R64_NW BOM_ROCI BOM_POCI BOM_EYE BOM_POS_METHOD BOM_PRES_METHOD NADI_LAT NADI_LON NADI_CAT NADI_WIND NADI_PRES WELLINGTON_LAT WELLINGTON_LON WELLINGTON_WIND WELLINGTON_PRES DS824_LAT DS824_LON DS824_STAGE DS824_WIND DS824_PRES TD9636_LAT TD9636_LON TD9636_STAGE TD9636_WIND TD9636_PRES TD9635_LAT TD9635_LON TD9635_WIND TD9635_PRES TD9635_ROCI NEUMANN_LAT NEUMANN_LON NEUMANN_CLASS NEUMANN_WIND NEUMANN_PRES MLC_LAT MLC_LON MLC_CLASS MLC_WIND MLC_PRES USA_GUST BOM_GUST BOM_GUST_PER REUNION_GUST REUNION_GUST_PER USA_SEAHGT USA_SEARAD_NE USA_SEARAD_SE USA_SEARAD_SW USA_SEARAD_NW STORM_SPEED STORM_DIR
1993051S14046 1993 14 SI MM GRACIA 1993-02-20 06:00:00 TS -13.7000 45.8000 20 1004 reunion main 208 203 _____O______O_ -1 -13.7000 45.8000 1 20 1004 1.50000 1.50000 -13.7000 45.8000 TC 20 1004 5 234
1993051S14046 1993 14 SI MM GRACIA 1993-02-20 09:00:00 TS -13.8476 45.5876 main 208 199 _____P______P_ -1 -13.8476 45.5876 1 20 1004 -13.8476 45.5876 TC 20 1004 5 232
1993051S14046 1993 14 SI MM GRACIA 1993-02-20 12:00:00 TS -14.0000 45.4000 20 1004 reunion main 203 201 _____O______O_ -1 -14.0000 45.4000 1 20 1004 1.50000 1.50000 -14.0000 45.4000 TC 20 1004 5 227
1993051S14046 1993 14 SI MM GRACIA 1993-02-20 15:00:00 TS -14.1575 45.2500 main 195 184 _____P______P_ -1 -14.1575 45.2500 1 20 1004 -14.1575 45.2500 TC 22 1003 4 224
1993051S14046 1993 14 SI MM GRACIA 1993-02-20 18:00:00 TS -14.3000 45.1000 20 1004 reunion main 186 179 _____O______O_ -1 -14.3000 45.1000 1 20 1004 1.50000 1.50000 -14.3000 45.1000 TC 25 1003 4 233
1993051S14046 1993 14 SI MM GRACIA 1993-02-20 21:00:00 TS -14.4000 44.9149 main 180 170 _____P______P_ -1 -14.4000 44.9149 1 20 1003 -14.4000 44.9149 TC 25 1002 4 243
1993051S14046 1993 14 SI MM GRACIA 1993-02-21 00:00:00 TS -14.5000 44.7000 20 1002 reunion main 173 165 _____O______O_ -1 -14.5000 44.7000 1 20 1002 1.50000 1.50000 -14.5000 44.7000 TC 25 1002 5 241
1993051S14046 1993 14 SI MM GRACIA 1993-02-21 03:00:00 TS -14.6424 44.4725 main 169 159 _____P______P_ -1 -14.6424 44.4725 1 20 1002 -14.6424 44.4725 TC 25 1002 6 238
1993051S14046 1993 14 SI MM GRACIA 1993-02-21 06:00:00 TS -14.8000 44.2000 20 1002 reunion main 165 162 _____O______O_ -1 -14.8000 44.2000 1 20 1002 1.50000 1.50000 -14.8000 44.2000 TC 25 1002 7 246
1993051S14046 1993 14 SI MM GRACIA 1993-02-21 09:00:00 TS -14.9277 43.8126 main 169 163 _____P______P_ -1 -14.9277 43.8126 1 20 1002 -14.9277 43.8126 TC 25 1002 7 246
1993051S14046 1993 14 SI MM GRACIA 1993-02-21 12:00:00 TS -15.1000 43.5000 20 1002 reunion main 165 139 _____O______O_ -1 -15.1000 43.5000 1 20 1002 1.50000 1.50000 -15.1000 43.5000 TC 25 1002 6 217
1993051S14046 1993 14 SI MM GRACIA 1993-02-21 15:00:00 TS -15.3849 43.4548 main 139 117 _____P______P_ -1 -15.3849 43.4548 1 21 1001 -15.3849 43.4548 TC 25 1001 6 179
1993051S14046 1993 14 SI MM GRACIA 1993-02-21 18:00:00 TS -15.7000 43.5000 23 1000 reunion main 117 106 _____O______O_ -1 -15.7000 43.5000 2 23 1000 2.00000 2.00000 -15.7000 43.5000 TC 25 1001 6 0
1993051S14046 1993 14 SI MM GRACIA 1993-02-21 21:00:00 TS -15.9800 43.4351 main 111 107 _____P______P_ -1 -15.9800 43.4351 2 23 1000 -15.9800 43.4351 TC 27 1000 5 191
1993051S14046 1993 14 SI MM GRACIA 1993-02-22 00:00:00 TS -16.2000 43.4000 23 1000 reunion main 107 96 _____O______O_ -1 -16.2000 43.4000 2 23 1000 2.00000 2.00000 -16.2000 43.4000 TC 30 1000 3 173
1993051S14046 1993 14 SI MM GRACIA 1993-02-22 03:00:00 TS -16.3225 43.4850 main 96 85 _____P______P_ -1 -16.3225 43.4850 2 25 998 -16.3225 43.4850 TC 32 998 3 136
1993051S14046 1993 14 SI MM GRACIA 1993-02-22 06:00:00 TS -16.4000 43.6000 27 997 reunion main 85 85 _____O______O_ -1 -16.4000 43.6000 2 27 997 2.50000 2.50000 -16.4000 43.6000 TC 35 997 2 142
1993051S14046 1993 14 SI MM GRACIA 1993-02-22 09:00:00 TS -16.5075 43.6350 main 85 72 _____P______P_ -1 -16.5075 43.6350 2 28 997 -16.5075 43.6350 TC 35 997 2 153
1993051S14046 1993 14 SI MM GRACIA 1993-02-22 12:00:00 TS -16.6000 43.7000 30 997 reunion main 72 48 _____O______O_ -1 -16.6000 43.7000 2 30 997 2.50000 2.50000 -16.6000 43.7000 TC 35 997 3 123
1993051S14046 1993 14 SI MM GRACIA 1993-02-22 15:00:00 TS -16.6584 43.8792 main 48 30 _____P______P_ -1 -16.6576 43.8850 2 33 993 -16.6601 43.8675 TC 40 993 4 105
1993051S14046 1993 14 SI MM GRACIA 1993-02-22 18:00:00 TS -16.7000 44.1000 37 990 reunion main 30 10 _____O______O_ -1 -16.7000 44.1000 3 37 990 3.00000 3.00000 -16.7000 44.1000 TC 45 990 4 104
1993051S14046 1993 14 SI MM GRACIA 1993-02-22 21:00:00 TS -16.7475 44.2675 main 10 0 _____P________ -1 -16.7475 44.2675 3 TC 3 109
1993051S14046 1993 14 SI MM GRACIA 1993-02-23 00:00:00 NR -16.8000 44.4000 reunion main 0 _____O________ -1 -16.8000 44.4000 8 9.90000 3 113

IBTrACS Databaseについて

本データベースは、米国NOAAが公開する1842年以降の世界の熱帯低気圧のベストトラックデータアーカイブInternational Best Track Archive for Climate Stewardship (IBTrACS)を、ウェブで閲覧しやすい形式に変換したものです。

最終更新日:2021-11-26